Time;durP1;ratioP1;P1;durP2;ratioP2;P2;SDS_P1;SDS_P2;PMS_P1;PMS_P2;Temp;Humidity;BMP_temperature;BMP_pressure;BME280_temperature;BME280_humidity;BME280_pressure;Samples;Min_cycle;Max_cycle;Signal;HPM_P1;HPM_P2
2023/02/25 12:27:03;;;;;;;4.43;0.70;;;6.30;99.90;;;;;;606079;23;21218;-82
2023/02/25 12:29:52;;;;;;;3.43;1.10;;;6.50;99.90;;;;;;4916657;29;20386;-81
2023/02/25 12:32:45;;;;;;;6.83;0.90;;;6.60;99.90;;;;;;4917559;29;20304;-83
2023/02/25 12:35:40;;;;;;;2.37;0.53;;;6.80;99.90;;;;;;4918319;29;20260;-82
2023/02/25 12:38:46;;;;;;;1.40;0.63;;;6.80;99.90;;;;;;4917162;29;20213;-83
2023/02/25 12:41:27;;;;;;;2.27;0.53;;;6.90;99.90;;;;;;4867300;29;20679;-82
2023/02/25 12:44:07;;;;;;;5.40;0.60;;;7.00;99.90;;;;;;4917408;29;20245;-83
2023/02/25 12:46:55;;;;;;;6.03;0.77;;;7.10;99.90;;;;;;4923644;29;20610;-83
2023/02/25 12:49:44;;;;;;;5.30;0.77;;;7.20;99.90;;;;;;4927354;29;20217;-84
2023/02/25 12:52:34;;;;;;;2.13;0.50;;;7.30;99.90;;;;;;4925333;29;20269;-83
2023/02/25 12:55:26;;;;;;;1.50;0.43;;;7.40;99.90;;;;;;4927086;29;20210;-80
2023/02/25 12:58:19;;;;;;;5.47;0.97;;;7.40;99.90;;;;;;4928165;29;20268;-84
2023/02/25 13:01:04;;;;;;;2.40;0.40;;;7.50;99.90;;;;;;4920157;29;20212;-84
2023/02/25 13:03:42;;;;;;;1.73;0.40;;;7.70;99.90;;;;;;4918770;29;20241;-85
2023/02/25 13:06:42;;;;;;;1.47;0.40;;;7.80;99.90;;;;;;4918893;29;20205;-83
2023/02/25 13:09:30;;;;;;;3.30;0.50;;;7.80;99.90;;;;;;4918711;29;20206;-83
2023/02/25 13:12:13;;;;;;;2.10;0.57;;;7.80;99.90;;;;;;4918712;29;20205;-85
2023/02/25 13:14:56;;;;;;;6.13;0.73;;;8.10;99.90;;;;;;4919176;29;20230;-86
2023/02/25 13:17:42;;;;;;;5.73;0.67;;;8.40;99.90;;;;;;4918612;29;20296;-82
2023/02/25 13:20:38;;;;;;;3.73;0.60;;;8.80;99.90;;;;;;4918610;29;20732;-84
2023/02/25 13:23:33;;;;;;;2.30;0.63;;;8.80;99.90;;;;;;4919526;29;20672;-86
2023/02/25 13:26:30;;;;;;;3.40;0.70;;;8.30;99.90;;;;;;4913546;29;20210;-83
2023/02/25 13:29:24;;;;;;;2.30;0.60;;;7.90;99.90;;;;;;4919030;29;20217;-85
2023/02/25 13:32:05;;;;;;;0.97;0.30;;;7.70;99.90;;;;;;4919778;29;20572;-84
2023/02/25 13:34:44;;;;;;;0.83;0.37;;;7.80;99.90;;;;;;4919711;29;20626;-82
2023/02/25 13:37:31;;;;;;;6.67;0.80;;;7.90;99.90;;;;;;4919392;29;20217;-84
2023/02/25 13:40:22;;;;;;;5.13;0.67;;;8.20;99.90;;;;;;4919232;29;20554;-84
2023/02/25 13:43:13;;;;;;;2.03;0.63;;;8.30;99.90;;;;;;4918907;29;20663;-81
2023/02/25 13:46:22;;;;;;;1.70;0.50;;;8.20;99.90;;;;;;4918088;29;20209;-83
2023/02/25 13:49:02;;;;;;;5.20;0.53;;;8.30;99.90;;;;;;4911130;29;20206;-82
2023/02/25 13:51:43;;;;;;;2.37;0.60;;;8.20;99.90;;;;;;4918387;29;20209;-86
2023/02/25 13:54:36;;;;;;;1.90;0.57;;;7.90;99.90;;;;;;4918211;29;20236;-81
2023/02/25 13:57:16;;;;;;;0.30;0.20;;;7.80;99.90;;;;;;4918177;29;20214;-83
2023/02/25 13:59:57;;;;;;;2.37;0.40;;;7.80;99.90;;;;;;4917904;29;20657;-84
2023/02/25 14:02:54;;;;;;;0.93;0.20;;;7.80;99.90;;;;;;4917728;29;20209;-82
2023/02/25 14:05:53;;;;;;;3.13;0.33;;;7.90;99.90;;;;;;4912037;29;20224;-85
2023/02/25 14:08:44;;;;;;;0.83;0.40;;;7.80;99.90;;;;;;4917674;29;20209;-83
2023/02/25 14:11:29;;;;;;;0.70;0.20;;;7.90;99.90;;;;;;4917786;29;20577;-81
2023/02/25 14:14:27;;;;;;;0.70;0.30;;;7.80;99.90;;;;;;4917156;29;20229;-82
2023/02/25 14:17:26;;;;;;;0.50;0.20;;;8.00;99.90;;;;;;4919523;29;20210;-85
2023/02/25 14:20:10;;;;;;;2.53;0.30;;;7.80;99.90;;;;;;4894601;29;20631;-84
2023/02/25 14:22:42;;;;;;;2.00;0.30;;;7.70;99.90;;;;;;4919846;29;20220;-85
2023/02/25 14:25:27;;;;;;;1.73;0.30;;;7.80;99.90;;;;;;4917670;29;20332;-85
2023/02/25 14:28:04;;;;;;;1.23;0.30;;;7.90;99.90;;;;;;4918549;29;20218;-84
2023/02/25 14:30:46;;;;;;;0.97;0.30;;;8.00;99.90;;;;;;4920643;29;20248;-84
2023/02/25 14:33:36;;;;;;;0.40;0.20;;;8.00;99.90;;;;;;4923106;29;20261;-82
2023/02/25 14:36:28;;;;;;;0.70;0.40;;;8.00;99.90;;;;;;4923365;29;20687;-81
2023/02/25 14:39:14;;;;;;;2.73;0.30;;;8.00;99.90;;;;;;4923946;29;20216;-83
2023/02/25 14:41:53;;;;;;;2.10;0.40;;;7.90;99.90;;;;;;4922461;29;20211;-80
2023/02/25 14:44:29;;;;;;;2.53;0.40;;;7.60;99.90;;;;;;4922862;29;20240;-83
2023/02/25 14:47:00;;;;;;;2.80;0.33;;;7.50;99.90;;;;;;4923236;29;20296;-83
2023/02/25 14:49:33;;;;;;;1.93;0.30;;;7.50;99.90;;;;;;4922822;29;20209;-83
2023/02/25 14:52:26;;;;;;;0.30;0.20;;;7.50;99.90;;;;;;4924169;29;20573;-83
2023/02/25 14:55:24;;;;;;;0.87;0.30;;;7.50;99.90;;;;;;4921960;29;20226;-83
2023/02/25 14:58:24;;;;;;;1.20;0.47;;;7.20;99.90;;;;;;4922822;29;20300;-82
2023/02/25 15:01:30;;;;;;;1.07;0.40;;;7.10;99.90;;;;;;4921896;29;20209;-83
2023/02/25 15:04:23;;;;;;;2.37;0.37;;;7.10;99.90;;;;;;4922629;29;20237;-84
2023/02/25 15:07:22;;;;;;;2.20;0.40;;;7.00;99.90;;;;;;4921465;29;20252;-84
2023/02/25 15:10:26;;;;;;;4.27;0.33;;;6.80;99.90;;;;;;4923707;29;20273;-83
2023/02/25 15:13:28;;;;;;;0.90;0.33;;;6.80;99.90;;;;;;4924366;29;20229;-84
2023/02/25 15:16:25;;;;;;;0.57;0.40;;;6.80;99.90;;;;;;4923645;29;20209;-83
2023/02/25 15:19:18;;;;;;;5.40;0.30;;;6.90;99.90;;;;;;4904016;29;20580;-83
2023/02/25 15:21:47;;;;;;;2.37;0.47;;;6.90;99.90;;;;;;4923174;29;20212;-84
2023/02/25 15:24:36;;;;;;;4.93;0.60;;;7.00;99.90;;;;;;4923673;29;20241;-82
2023/02/25 15:27:47;;;;;;;2.00;0.57;;;7.10;99.90;;;;;;4922445;29;20247;-83
2023/02/25 15:30:17;;;;;;;1.90;0.50;;;7.20;99.90;;;;;;4903853;29;20213;-83
2023/02/25 15:33:06;;;;;;;3.60;0.70;;;7.30;99.90;;;;;;4923031;29;20320;-84
2023/02/25 15:35:56;;;;;;;2.00;0.60;;;7.40;99.90;;;;;;4922285;29;20217;-84
2023/02/25 15:38:44;;;;;;;5.00;0.50;;;7.40;99.90;;;;;;4925273;29;20220;-83
2023/02/25 15:41:38;;;;;;;1.53;0.50;;;7.40;99.90;;;;;;4926111;29;20218;-82
2023/02/25 15:44:31;;;;;;;1.80;0.60;;;7.40;99.90;;;;;;4919620;29;20276;-81
2023/02/25 15:47:26;;;;;;;2.37;0.47;;;7.30;99.90;;;;;;4918878;29;20720;-81
2023/02/25 15:49:56;;;;;;;1.67;0.70;;;7.50;99.90;;;;;;4917538;29;20596;-80
2023/02/25 15:52:52;;;;;;;1.17;0.47;;;7.70;99.90;;;;;;4919752;29;20703;-82
2023/02/25 15:55:39;;;;;;;0.63;0.40;;;7.70;99.90;;;;;;4918940;29;20217;-83
2023/02/25 15:58:41;;;;;;;2.50;0.50;;;7.30;99.90;;;;;;4917687;29;20210;-82
2023/02/25 16:01:41;;;;;;;1.30;0.70;;;7.10;99.90;;;;;;4919848;29;20240;-81
2023/02/25 16:04:41;;;;;;;1.60;0.60;;;7.20;99.90;;;;;;4920781;29;20233;-83
2023/02/25 16:07:13;;;;;;;3.23;0.70;;;7.10;99.90;;;;;;4920236;29;20213;-84
2023/02/25 16:09:44;;;;;;;2.97;0.70;;;7.10;99.90;;;;;;4920688;29;20248;-83
2023/02/25 16:12:14;;;;;;;1.57;0.60;;;7.10;99.90;;;;;;4919543;29;20214;-82
2023/02/25 16:14:42;;;;;;;2.07;0.70;;;7.10;99.90;;;;;;4919457;29;20712;-80
2023/02/25 16:17:16;;;;;;;1.63;0.70;;;6.90;99.90;;;;;;4919498;29;20206;-81
2023/02/25 16:19:50;;;;;;;2.37;1.10;;;6.80;99.90;;;;;;4919735;29;20212;-82
2023/02/25 16:22:19;;;;;;;4.70;0.83;;;6.80;99.90;;;;;;4919808;29;20219;-84
